createdAt,value
2024-05-09T00:00:43.676Z,20.11
2024-05-09T00:03:12.210Z,20.18
2024-05-09T00:05:45.557Z,20.29
2024-05-09T00:08:13.247Z,20.35
2024-05-09T00:10:41.385Z,20.39
2024-05-09T00:13:10.894Z,20.35
2024-05-09T00:15:39.052Z,20.29
2024-05-09T00:18:09.714Z,20.25
2024-05-09T00:20:40.247Z,20.23
2024-05-09T00:23:12.392Z,20.19
2024-05-09T00:25:43.351Z,20.14
2024-05-09T00:28:13.013Z,20.09
2024-05-09T00:30:41.193Z,20.03
2024-05-09T00:33:10.276Z,19.98
2024-05-09T00:35:39.079Z,19.97
2024-05-09T00:38:06.661Z,20.00
2024-05-09T00:40:42.146Z,20.00
2024-05-09T00:43:14.763Z,20.06
2024-05-09T00:45:43.805Z,20.19
2024-05-09T00:48:17.561Z,20.35
2024-05-09T00:50:47.656Z,20.75
2024-05-09T00:53:18.054Z,21.22
2024-05-09T00:55:46.729Z,21.55
2024-05-09T00:58:17.132Z,21.85
2024-05-09T01:00:44.906Z,22.11
2024-05-09T01:03:14.307Z,22.35
2024-05-09T01:05:45.209Z,22.48
2024-05-09T01:08:13.568Z,22.58
2024-05-09T01:10:44.043Z,22.65
2024-05-09T01:13:13.314Z,22.69
2024-05-09T01:15:40.675Z,22.74
2024-05-09T01:18:11.532Z,22.80
2024-05-09T01:20:43.323Z,22.80
2024-05-09T01:23:15.116Z,22.79
2024-05-09T01:25:45.123Z,22.75
2024-05-09T01:28:13.050Z,22.69
2024-05-09T01:30:40.507Z,22.65
2024-05-09T01:33:10.544Z,22.62
2024-05-09T01:35:42.307Z,22.63
2024-05-09T01:38:14.197Z,22.62
2024-05-09T01:40:41.842Z,22.61
2024-05-09T01:43:11.519Z,22.57
2024-05-09T01:45:41.288Z,22.53
2024-05-09T01:48:09.759Z,22.49
2024-05-09T01:50:41.180Z,22.41
2024-05-09T01:53:11.926Z,22.34
2024-05-09T01:55:39.620Z,22.28
2024-05-09T01:58:07.666Z,22.19
2024-05-09T02:00:40.319Z,22.08
2024-05-09T02:03:16.550Z,22.01
2024-05-09T02:05:47.460Z,21.98
2024-05-09T02:08:18.059Z,22.05
2024-05-09T02:10:47.591Z,22.08
2024-05-09T02:13:16.521Z,22.09
2024-05-09T02:15:44.033Z,22.14
2024-05-09T02:18:12.198Z,22.29
2024-05-09T02:20:41.737Z,22.45
2024-05-09T02:23:10.498Z,22.55
2024-05-09T02:25:38.044Z,22.66
2024-05-09T02:28:05.666Z,22.76
2024-05-09T02:30:39.526Z,22.87
2024-05-09T02:33:14.125Z,23.00
2024-05-09T02:35:43.645Z,23.09
2024-05-09T02:38:12.211Z,23.14
2024-05-09T02:40:40.491Z,23.17
2024-05-09T02:43:09.953Z,23.20
2024-05-09T02:45:39.001Z,23.24
2024-05-09T02:48:07.334Z,23.27
2024-05-09T02:50:39.095Z,23.27
2024-05-09T02:53:14.712Z,23.32
2024-05-09T02:55:43.051Z,23.33
2024-05-09T02:58:10.928Z,23.33
2024-05-09T03:00:41.802Z,23.30
2024-05-09T03:03:14.018Z,23.28
2024-05-09T03:05:44.270Z,23.29
2024-05-09T03:08:12.327Z,23.28
2024-05-09T03:10:42.973Z,23.26
2024-05-09T03:13:13.560Z,23.25
2024-05-09T03:15:43.027Z,23.22
2024-05-09T03:18:11.575Z,23.20
2024-05-09T03:20:40.082Z,23.16
2024-05-09T03:23:09.542Z,23.15
2024-05-09T03:25:37.999Z,23.18
2024-05-09T03:28:05.839Z,23.24
2024-05-09T03:30:40.159Z,23.29
2024-05-09T03:33:19.643Z,23.32
2024-05-09T03:35:48.831Z,23.32
2024-05-09T03:38:17.065Z,23.31
2024-05-09T03:40:51.537Z,23.33
2024-05-09T03:43:20.276Z,23.34
2024-05-09T03:45:48.965Z,23.39
2024-05-09T03:48:17.205Z,23.46
2024-05-09T03:50:45.002Z,23.52
2024-05-09T03:53:14.043Z,23.58
2024-05-09T03:55:41.917Z,23.60
2024-05-09T03:58:09.592Z,23.63
2024-05-09T04:00:39.344Z,23.64
2024-05-09T04:03:10.827Z,23.70
2024-05-09T04:05:44.401Z,23.74
2024-05-09T04:08:12.678Z,23.76
2024-05-09T04:10:40.920Z,23.82
2024-05-09T04:13:08.606Z,23.89
2024-05-09T04:15:35.916Z,23.97
2024-05-09T04:18:03.391Z,24.03
2024-05-09T04:20:37.887Z,24.08
2024-05-09T04:23:12.832Z,24.16
2024-05-09T04:25:45.619Z,24.21
2024-05-09T04:28:13.676Z,24.25
2024-05-09T04:30:41.959Z,24.32
2024-05-09T04:33:14.375Z,24.38
2024-05-09T04:35:45.558Z,24.43
2024-05-09T04:38:14.453Z,24.46
2024-05-09T04:40:42.753Z,24.48
2024-05-09T04:43:19.268Z,24.52
2024-05-09T04:45:46.670Z,24.52
2024-05-09T04:48:14.025Z,24.57
2024-05-09T04:50:42.088Z,24.63
2024-05-09T04:53:11.432Z,24.66
2024-05-09T04:55:40.040Z,24.72
2024-05-09T04:58:09.480Z,24.78
2024-05-09T05:00:39.081Z,24.84
2024-05-09T05:03:10.772Z,24.92
2024-05-09T05:05:41.369Z,25.04
2024-05-09T05:08:12.936Z,25.14
2024-05-09T05:10:41.611Z,25.26
2024-05-09T05:13:23.084Z,25.49
2024-05-09T05:15:53.903Z,26.51
2024-05-09T05:18:22.248Z,28.13
2024-05-09T05:20:49.753Z,29.82
2024-05-09T05:23:20.698Z,31.32
2024-05-09T05:25:55.822Z,32.75
2024-05-09T05:28:23.992Z,33.81
2024-05-09T05:30:51.407Z,34.82
2024-05-09T05:33:19.973Z,35.92
2024-05-09T05:35:47.806Z,36.93
2024-05-09T05:38:15.123Z,37.82
2024-05-09T05:40:42.490Z,38.52
2024-05-09T05:43:16.836Z,39.01
2024-05-09T05:45:44.222Z,39.39
2024-05-09T05:48:13.250Z,39.91
2024-05-09T05:50:40.992Z,40.49
2024-05-09T05:53:09.921Z,40.97
2024-05-09T05:55:41.609Z,41.10
2024-05-09T05:58:12.771Z,41.41
2024-05-09T06:00:41.896Z,41.14
2024-05-09T06:03:11.230Z,40.82
2024-05-09T06:05:44.381Z,40.95
2024-05-09T06:08:12.616Z,41.38
2024-05-09T06:10:41.266Z,42.02
2024-05-09T06:13:13.967Z,42.37
2024-05-09T06:15:42.539Z,42.86
2024-05-09T06:18:11.947Z,43.08
2024-05-09T06:20:43.504Z,42.96
2024-05-09T06:23:12.728Z,42.94
2024-05-09T06:25:40.912Z,42.96
2024-05-09T06:28:08.240Z,43.45
2024-05-09T06:30:42.539Z,44.13
2024-05-09T06:33:13.951Z,44.49
2024-05-09T06:35:43.420Z,44.55
2024-05-09T06:38:11.294Z,44.66
2024-05-09T06:40:43.220Z,45.02
2024-05-09T06:43:20.257Z,45.29
2024-05-09T06:45:54.854Z,45.61
2024-05-09T06:48:22.935Z,45.64
2024-05-09T06:50:50.930Z,45.80
2024-05-09T06:53:22.398Z,46.00
2024-05-09T06:55:50.311Z,45.89
2024-05-09T06:58:17.772Z,45.89
2024-05-09T07:00:45.390Z,45.65
2024-05-09T07:03:18.308Z,45.96
2024-05-09T07:05:48.644Z,46.27
2024-05-09T07:08:17.247Z,46.53
2024-05-09T07:10:45.151Z,46.71
2024-05-09T07:13:14.395Z,46.31
2024-05-09T07:15:42.391Z,45.98
2024-05-09T07:18:14.308Z,45.90
2024-05-09T07:20:42.440Z,46.09
2024-05-09T07:23:11.279Z,45.80
2024-05-09T07:25:40.527Z,45.60
2024-05-09T07:28:15.382Z,46.05
2024-05-09T07:30:43.360Z,46.70
2024-05-09T07:33:17.201Z,46.43
2024-05-09T07:35:44.871Z,46.46
2024-05-09T07:38:12.317Z,47.22
2024-05-09T07:40:41.186Z,47.78
2024-05-09T07:43:13.512Z,47.71
2024-05-09T07:45:50.488Z,46.95
2024-05-09T07:52:38.960Z,46.47
2024-05-09T07:53:48.031Z,46.01
2024-05-09T07:56:21.235Z,45.94
2024-05-09T07:58:50.263Z,46.05
2024-05-09T08:01:17.729Z,46.35
2024-05-09T08:03:45.800Z,46.30
2024-05-09T08:06:13.654Z,46.64
2024-05-09T08:08:40.987Z,46.64
2024-05-09T08:11:08.306Z,46.12
2024-05-09T08:13:36.116Z,45.92
2024-05-09T08:16:03.383Z,46.16
2024-05-09T08:18:30.998Z,46.52
2024-05-09T08:20:58.622Z,46.88
2024-05-09T08:23:26.529Z,47.25
2024-05-09T08:25:53.697Z,47.31
2024-05-09T08:28:21.650Z,47.81
2024-05-09T08:30:49.070Z,48.00
2024-05-09T08:33:16.543Z,47.93
2024-05-09T08:35:43.956Z,47.99
2024-05-09T08:38:11.351Z,48.12
2024-05-09T08:40:39.016Z,48.23
2024-05-09T08:43:11.213Z,47.87
2024-05-09T08:45:44.494Z,47.65
2024-05-09T08:48:15.842Z,47.06
2024-05-09T08:50:45.017Z,46.97
2024-05-09T08:53:13.514Z,47.43
2024-05-09T08:55:43.426Z,47.85
2024-05-09T08:58:20.161Z,47.95
2024-05-09T09:00:48.953Z,47.35
2024-05-09T09:03:20.068Z,47.12
2024-05-09T09:06:12.249Z,46.85
2024-05-09T09:08:40.405Z,46.35
2024-05-09T09:11:07.822Z,45.65
2024-05-09T09:13:35.196Z,45.16
2024-05-09T09:16:03.364Z,44.11
2024-05-09T09:18:31.226Z,43.02
2024-05-09T09:20:59.010Z,41.68
2024-05-09T09:23:30.460Z,40.43
2024-05-09T09:26:00.938Z,39.03
2024-05-09T09:28:28.710Z,38.11
2024-05-09T09:31:03.537Z,37.10
2024-05-09T09:33:36.720Z,36.29
2024-05-09T09:36:06.845Z,35.47
2024-05-09T09:38:37.961Z,34.83
2024-05-09T09:41:07.770Z,34.17
2024-05-09T09:43:36.931Z,33.63
2024-05-09T09:46:07.961Z,33.23
2024-05-09T09:48:38.700Z,32.84
2024-05-09T09:51:08.215Z,32.55
2024-05-09T09:53:36.798Z,32.27
2024-05-09T09:56:06.043Z,32.02
2024-05-09T09:58:35.290Z,31.88
2024-05-09T10:01:02.674Z,31.71
2024-05-09T10:03:30.330Z,31.54
2024-05-09T10:05:58.507Z,31.37
2024-05-09T10:08:26.063Z,31.27
2024-05-09T10:10:53.552Z,31.14
2024-05-09T10:13:21.283Z,31.01
2024-05-09T10:15:53.156Z,30.95
2024-05-09T10:18:28.504Z,30.87
2024-05-09T10:20:58.175Z,30.78
2024-05-09T10:23:34.220Z,30.72
2024-05-09T10:26:06.352Z,30.70
2024-05-09T10:28:36.124Z,30.67
2024-05-09T10:31:16.630Z,30.64
2024-05-09T10:33:50.947Z,30.68
2024-05-09T10:36:23.005Z,30.72
2024-05-09T10:38:51.631Z,30.70
2024-05-09T10:41:19.518Z,30.72
2024-05-09T10:43:47.932Z,30.74
2024-05-09T10:46:15.472Z,30.73
2024-05-09T10:48:44.623Z,30.71
2024-05-09T10:51:12.239Z,30.70
2024-05-09T10:53:47.612Z,30.69
2024-05-09T10:56:15.136Z,30.68
2024-05-09T10:58:42.849Z,30.66
2024-05-09T11:01:22.828Z,30.67
2024-05-09T11:03:51.288Z,30.74
2024-05-09T11:06:19.081Z,30.72
2024-05-09T11:08:47.597Z,30.71
2024-05-09T11:11:15.566Z,30.74
2024-05-09T11:13:43.042Z,30.78
2024-05-09T11:16:21.431Z,30.79
2024-05-09T11:18:59.045Z,30.71
2024-05-09T11:21:27.260Z,30.58
2024-05-09T11:23:59.349Z,30.51
2024-05-09T11:26:29.815Z,30.53
2024-05-09T11:28:57.136Z,30.65
2024-05-09T11:31:24.678Z,30.79
2024-05-09T11:33:55.432Z,30.89
2024-05-09T11:36:22.840Z,30.96
2024-05-09T11:38:50.078Z,31.04
2024-05-09T11:41:19.092Z,31.20
2024-05-09T11:43:46.637Z,31.24
2024-05-09T11:46:14.242Z,31.28
2024-05-09T11:48:42.253Z,31.31
2024-05-09T11:51:09.681Z,31.31
2024-05-09T11:53:36.930Z,31.27
2024-05-09T11:56:04.676Z,31.23
2024-05-09T11:58:37.120Z,31.17
2024-05-09T12:01:04.988Z,31.01
2024-05-09T12:03:32.586Z,30.91
2024-05-09T12:06:00.264Z,30.89
2024-05-09T12:08:28.192Z,30.94
2024-05-09T12:10:55.889Z,30.97
2024-05-09T12:13:23.719Z,30.90
2024-05-09T12:15:51.273Z,30.92
2024-05-09T12:18:18.598Z,30.97
2024-05-09T12:20:45.878Z,30.97
2024-05-09T12:23:13.695Z,30.94
2024-05-09T12:25:41.496Z,30.89
2024-05-09T12:28:09.121Z,30.93
2024-05-09T12:30:41.211Z,30.98
2024-05-09T12:33:09.867Z,30.94
2024-05-09T12:35:38.056Z,30.98
2024-05-09T12:38:05.700Z,31.12
2024-05-09T12:40:36.886Z,31.19
2024-05-09T12:43:10.218Z,31.31
2024-05-09T12:45:38.713Z,31.33
2024-05-09T12:48:12.732Z,31.42
2024-05-09T12:50:41.753Z,31.52
2024-05-09T12:53:10.138Z,31.56
2024-05-09T12:55:45.148Z,31.59
2024-05-09T12:58:22.836Z,31.60
2024-05-09T13:00:52.309Z,31.59
2024-05-09T13:03:20.700Z,31.54
2024-05-09T13:05:48.953Z,31.47
2024-05-09T13:08:16.817Z,31.40
2024-05-09T13:10:44.532Z,31.34
2024-05-09T13:13:12.757Z,31.35
2024-05-09T13:15:40.650Z,31.29
2024-05-09T13:18:09.091Z,31.25
2024-05-09T13:20:37.261Z,31.22
2024-05-09T13:23:07.502Z,31.25
2024-05-09T13:25:35.870Z,31.22
2024-05-09T13:28:07.607Z,31.17
2024-05-09T13:30:40.463Z,31.18
2024-05-09T13:33:14.432Z,31.13
2024-05-09T13:35:47.272Z,31.04
2024-05-09T13:38:19.577Z,30.98
2024-05-09T13:40:47.804Z,30.93
2024-05-09T13:43:16.175Z,30.94
2024-05-09T13:45:43.791Z,30.93
2024-05-09T13:48:11.505Z,30.84
2024-05-09T13:50:39.575Z,30.84
2024-05-09T13:53:08.240Z,30.74
2024-05-09T13:55:39.908Z,30.71
2024-05-09T13:58:08.556Z,30.75
2024-05-09T14:00:44.649Z,30.66
2024-05-09T14:03:18.103Z,30.60
2024-05-09T14:05:48.158Z,30.61
2024-05-09T14:08:16.065Z,30.55
2024-05-09T14:10:47.257Z,30.57
2024-05-09T14:13:15.393Z,30.55
2024-05-09T14:15:42.987Z,30.53
2024-05-09T14:18:13.395Z,30.48
2024-05-09T14:20:42.450Z,30.46
2024-05-09T14:23:10.655Z,30.39
2024-05-09T14:25:42.452Z,30.41
2024-05-09T14:28:12.118Z,30.38
2024-05-09T14:30:40.446Z,30.34
2024-05-09T14:33:08.923Z,30.35
2024-05-09T14:35:38.658Z,30.37
2024-05-09T14:38:08.161Z,30.35
2024-05-09T14:40:41.981Z,30.31
2024-05-09T14:43:15.850Z,30.28
2024-05-09T14:45:44.409Z,30.22
2024-05-09T14:48:15.347Z,30.14
2024-05-09T14:50:44.497Z,30.15
2024-05-09T14:53:13.899Z,30.13
2024-05-09T14:55:43.482Z,30.05
2024-05-09T14:58:12.643Z,30.01
2024-05-09T15:00:46.502Z,29.98
2024-05-09T15:03:18.754Z,29.94
2024-05-09T15:05:48.074Z,29.92
2024-05-09T15:08:18.015Z,29.89
2024-05-09T15:10:45.868Z,29.84
2024-05-09T15:13:15.803Z,29.83
2024-05-09T15:15:44.464Z,29.80
2024-05-09T15:18:12.475Z,29.66
2024-05-09T15:20:41.382Z,29.61
2024-05-09T15:23:08.726Z,29.54
2024-05-09T15:25:36.895Z,29.48
2024-05-09T15:28:05.479Z,29.40
2024-05-09T15:30:34.154Z,29.37
2024-05-09T15:33:07.404Z,29.31
2024-05-09T15:35:36.272Z,29.27
2024-05-09T15:38:04.421Z,29.14
2024-05-09T15:40:39.404Z,29.10
2024-05-09T15:43:10.451Z,29.02
2024-05-09T15:45:39.874Z,28.95
2024-05-09T15:48:09.599Z,28.87
2024-05-09T15:50:40.928Z,28.78
2024-05-09T15:53:10.533Z,28.67
2024-05-09T15:55:38.705Z,28.58
2024-05-09T15:58:07.159Z,28.51
2024-05-09T16:00:39.427Z,28.43
2024-05-09T16:03:14.088Z,28.34
2024-05-09T16:05:44.026Z,28.17
2024-05-09T16:08:13.023Z,28.09
2024-05-09T16:10:44.635Z,28.01
2024-05-09T16:13:13.147Z,27.88
2024-05-09T16:15:40.955Z,27.79
2024-05-09T16:18:08.623Z,27.75
2024-05-09T16:20:40.246Z,27.67
2024-05-09T16:23:10.560Z,27.59
2024-05-09T16:25:38.452Z,27.54
2024-05-09T16:28:09.725Z,27.48
2024-05-09T16:30:39.930Z,27.45
2024-05-09T16:33:08.603Z,27.40
2024-05-09T16:35:37.485Z,27.35
2024-05-09T16:38:05.610Z,27.28
2024-05-09T16:40:38.204Z,27.24
2024-05-09T16:43:12.181Z,27.20
2024-05-09T16:45:41.394Z,27.14
2024-05-09T16:48:37.754Z,27.09
2024-05-09T16:51:05.045Z,27.02
2024-05-09T16:53:32.636Z,26.99
2024-05-09T16:56:00.052Z,26.95
2024-05-09T16:58:27.558Z,26.93
2024-05-09T17:00:54.982Z,26.92
2024-05-09T17:03:24.100Z,26.91
2024-05-09T17:05:51.626Z,26.88
2024-05-09T17:08:20.246Z,26.88
2024-05-09T17:10:51.531Z,26.87
2024-05-09T17:13:19.546Z,26.86
2024-05-09T17:15:47.489Z,26.83
2024-05-09T17:18:15.499Z,26.80
2024-05-09T17:20:42.824Z,26.78
2024-05-09T17:23:13.932Z,26.75
2024-05-09T17:25:42.668Z,26.74
2024-05-09T17:28:11.138Z,26.71
2024-05-09T17:30:40.574Z,26.70
2024-05-09T17:33:11.218Z,26.68
2024-05-09T17:35:39.818Z,26.66
2024-05-09T17:38:07.535Z,26.63
2024-05-09T17:40:37.245Z,26.61
2024-05-09T17:43:08.477Z,26.59
2024-05-09T17:45:41.302Z,26.58
2024-05-09T17:48:10.505Z,26.57
2024-05-09T17:50:39.589Z,26.60
2024-05-09T17:53:07.951Z,26.59
2024-05-09T17:55:36.210Z,26.62
2024-05-09T17:58:05.187Z,26.62
2024-05-09T18:00:38.765Z,26.60
2024-05-09T18:03:12.133Z,26.58
2024-05-09T18:05:41.107Z,26.56
2024-05-09T18:08:09.139Z,26.53
2024-05-09T18:10:39.333Z,26.50
2024-05-09T18:13:12.219Z,26.48
2024-05-09T18:15:40.278Z,26.47
2024-05-09T18:18:08.285Z,26.44
2024-05-09T18:20:42.252Z,26.40
2024-05-09T18:23:14.381Z,26.38
2024-05-09T18:25:43.302Z,26.34
2024-05-09T18:28:11.003Z,26.33
2024-05-09T18:30:39.442Z,26.30
2024-05-09T18:33:08.447Z,26.28
2024-05-09T18:35:36.859Z,26.27
2024-05-09T18:38:05.646Z,26.24
2024-05-09T18:40:36.609Z,26.21
2024-05-09T18:43:07.795Z,26.18
2024-05-09T18:45:39.785Z,26.16
2024-05-09T18:48:09.402Z,26.13
2024-05-09T18:50:39.958Z,26.10
2024-05-09T18:53:13.379Z,26.05
2024-05-09T18:55:42.337Z,26.02
2024-05-09T18:58:09.676Z,25.98
2024-05-09T19:00:39.945Z,25.97
2024-05-09T19:03:12.829Z,25.91
2024-05-09T19:05:44.016Z,25.90
2024-05-09T19:08:15.860Z,25.91
2024-05-09T19:10:46.371Z,25.89
2024-05-09T19:13:14.703Z,25.84
2024-05-09T19:15:43.554Z,25.82
2024-05-09T19:18:13.618Z,25.79
2024-05-09T19:20:44.737Z,25.78
2024-05-09T19:23:12.388Z,25.75
2024-05-09T19:25:39.839Z,25.74
2024-05-09T19:28:07.558Z,25.73
2024-05-09T19:30:40.189Z,25.75
2024-05-09T19:33:12.731Z,25.75
2024-05-09T19:35:41.180Z,25.76
2024-05-09T19:38:08.532Z,25.78
2024-05-09T19:40:36.570Z,25.80
2024-05-09T19:43:06.069Z,25.83
2024-05-09T19:45:35.256Z,25.85
2024-05-09T19:48:04.909Z,25.88
2024-05-09T19:50:40.858Z,25.91
2024-05-09T19:53:12.296Z,25.91
2024-05-09T19:55:40.427Z,25.90
2024-05-09T19:58:09.295Z,25.89
2024-05-09T20:00:41.150Z,25.86
2024-05-09T20:03:12.045Z,25.79
2024-05-09T20:05:40.298Z,25.72
2024-05-09T20:08:08.111Z,25.71
2024-05-09T20:10:36.510Z,25.71
2024-05-09T20:13:07.104Z,25.72
2024-05-09T20:15:37.178Z,25.72
2024-05-09T20:18:05.281Z,25.72
2024-05-09T20:20:39.498Z,25.70
2024-05-09T20:23:13.146Z,25.70
2024-05-09T20:25:41.171Z,25.74
2024-05-09T20:28:08.852Z,25.76
2024-05-09T20:30:37.018Z,25.76
2024-05-09T20:33:07.634Z,25.76
2024-05-09T20:35:36.426Z,25.80
2024-05-09T20:38:04.449Z,25.84
2024-05-09T20:40:36.446Z,25.89
2024-05-09T20:43:07.488Z,25.94
2024-05-09T20:45:35.637Z,25.98
2024-05-09T20:48:03.498Z,25.99
2024-05-09T20:50:37.809Z,25.97
2024-05-09T20:53:09.708Z,25.95
2024-05-09T20:55:37.203Z,25.95
2024-05-09T20:58:04.773Z,25.96
2024-05-09T21:00:39.659Z,25.99
2024-05-09T21:03:12.218Z,26.02
2024-05-09T21:05:40.539Z,26.06
2024-05-09T21:08:08.706Z,26.12
2024-05-09T21:10:37.213Z,26.19
2024-05-09T21:13:06.765Z,26.24
2024-05-09T21:15:35.325Z,26.28
2024-05-09T21:18:03.069Z,26.30
2024-05-09T21:20:33.004Z,26.34
2024-05-09T21:23:02.271Z,26.38
2024-05-09T21:25:30.126Z,26.41
2024-05-09T21:27:58.026Z,26.42
2024-05-09T21:32:55.983Z,26.42
2024-05-09T21:35:23.348Z,26.39
2024-05-09T21:37:50.706Z,26.36
2024-05-09T21:40:27.104Z,26.34
2024-05-09T21:43:02.492Z,26.34
2024-05-09T21:45:29.878Z,26.35
2024-05-09T21:47:57.400Z,26.35
2024-05-09T21:50:35.882Z,26.36
2024-05-09T21:53:07.437Z,26.37
2024-05-09T21:55:35.168Z,26.39
2024-05-09T21:58:02.906Z,26.43
2024-05-09T22:00:36.142Z,26.46
2024-05-09T22:03:10.680Z,26.47
2024-05-09T22:05:43.308Z,26.50
2024-05-09T22:08:11.711Z,26.49
2024-05-09T22:10:39.192Z,26.48
2024-05-09T22:13:07.791Z,26.50
2024-05-09T22:15:37.559Z,26.51
2024-05-09T22:18:06.660Z,26.52
2024-05-09T22:20:37.848Z,26.51
2024-05-09T22:23:08.739Z,26.53
2024-05-09T22:25:36.915Z,26.54
2024-05-09T22:28:04.873Z,26.57
2024-05-09T22:30:37.181Z,26.57
2024-05-09T22:33:11.693Z,26.57
2024-05-09T22:35:41.041Z,26.55
2024-05-09T22:38:08.834Z,26.54
2024-05-09T22:40:45.512Z,26.54
2024-05-09T22:43:24.472Z,26.59
2024-05-09T22:45:55.921Z,26.59
2024-05-09T22:48:25.127Z,26.58
2024-05-09T22:50:53.857Z,26.57
2024-05-09T22:53:26.086Z,26.59
2024-05-09T22:55:53.642Z,26.58
2024-05-09T22:58:21.185Z,26.54
2024-05-09T23:00:49.010Z,26.51
2024-05-09T23:03:17.047Z,26.49
2024-05-09T23:05:44.404Z,26.52
2024-05-09T23:08:11.895Z,26.52
2024-05-09T23:10:39.299Z,26.50
2024-05-09T23:13:08.386Z,26.48
2024-05-09T23:15:38.456Z,26.46
2024-05-09T23:18:07.060Z,26.41
2024-05-09T23:20:38.481Z,26.40
2024-05-09T23:23:11.310Z,26.33
2024-05-09T23:25:41.576Z,26.34
2024-05-09T23:28:09.394Z,26.36
2024-05-09T23:30:39.919Z,26.32
2024-05-09T23:33:11.617Z,26.31
2024-05-09T23:35:41.625Z,26.32
2024-05-09T23:38:08.858Z,26.38
2024-05-09T23:40:39.709Z,26.44
2024-05-09T23:43:11.282Z,26.52
2024-05-09T23:45:39.271Z,26.58
2024-05-09T23:48:07.333Z,26.62
2024-05-09T23:50:37.734Z,26.66
2024-05-09T23:53:08.596Z,26.68
2024-05-09T23:55:37.407Z,26.66
2024-05-09T23:58:05.187Z,26.66
